Time;durP1;ratioP1;P1;durP2;ratioP2;P2;SDS_P1;SDS_P2;PMS_P1;PMS_P2;Temp;Humidity;BMP_temperature;BMP_pressure;BME280_temperature;BME280_humidity;BME280_pressure;Samples;Min_cycle;Max_cycle;Signal;HPM_P1;HPM_P2
2020/12/29 00:01:29;;;;;;;7.13;1.35;;;;;;;;;;5074406;28;20029;-63
2020/12/29 00:03:55;;;;;;;4.40;1.77;;;;;;;;;;5074171;28;20020;-60
2020/12/29 00:06:22;;;;;;;6.63;1.95;;;;;;;;;;5055670;28;20438;-63
2020/12/29 00:08:48;;;;;;;8.10;1.75;;;;;;;;;;5074062;28;20025;-60
2020/12/29 00:11:14;;;;;;;5.47;1.23;;;;;;;;;;5072662;28;20040;-61
2020/12/29 00:13:40;;;;;;;2.17;0.70;;;;;;;;;;5072122;28;20071;-62
2020/12/29 00:16:06;;;;;;;3.92;1.38;;;;;;;;;;5073164;28;20020;-62
2020/12/29 00:18:32;;;;;;;5.65;1.38;;;;;;;;;;5061179;28;20017;-60
2020/12/29 00:20:58;;;;;;;3.75;1.60;;;;;;;;;;5054465;28;20021;-61
2020/12/29 00:23:24;;;;;;;3.15;1.20;;;;;;;;;;5060783;28;20444;-59
2020/12/29 00:25:50;;;;;;;8.88;2.28;;;;;;;;;;5069659;28;20496;-61
2020/12/29 00:28:16;;;;;;;3.25;0.80;;;;;;;;;;5071390;28;20060;-65
2020/12/29 00:30:42;;;;;;;2.72;0.88;;;;;;;;;;5054364;28;20032;-59
2020/12/29 00:33:08;;;;;;;4.68;0.90;;;;;;;;;;5074215;28;20445;-59
2020/12/29 00:35:34;;;;;;;2.85;0.80;;;;;;;;;;5073419;28;20782;-58
2020/12/29 00:38:00;;;;;;;4.28;0.40;;;;;;;;;;5072914;28;20021;-58
2020/12/29 00:40:26;;;;;;;2.78;1.30;;;;;;;;;;5073032;28;20032;-58
2020/12/29 00:42:52;;;;;;;4.22;0.82;;;;;;;;;;5072507;28;20021;-59
2020/12/29 00:45:18;;;;;;;3.25;0.80;;;;;;;;;;5073820;28;20029;-57
2020/12/29 00:47:44;;;;;;;3.15;0.60;;;;;;;;;;5064023;28;20111;-60
2020/12/29 00:50:10;;;;;;;2.10;0.55;;;;;;;;;;5075025;28;20028;-57
2020/12/29 00:52:36;;;;;;;4.60;0.70;;;;;;;;;;5066873;28;20025;-58
2020/12/29 00:55:03;;;;;;;3.25;0.73;;;;;;;;;;5056347;28;20013;-57
2020/12/29 00:57:29;;;;;;;6.45;0.80;;;;;;;;;;5064830;28;20073;-57
2020/12/29 00:59:55;;;;;;;3.15;0.90;;;;;;;;;;5060252;28;20020;-60
2020/12/29 01:02:21;;;;;;;2.08;0.47;;;;;;;;;;5054479;28;20048;-56
2020/12/29 01:04:47;;;;;;;3.33;0.55;;;;;;;;;;5072590;28;20032;-57
2020/12/29 01:07:13;;;;;;;1.90;0.70;;;;;;;;;;5072644;28;20035;-57
2020/12/29 01:09:39;;;;;;;1.08;0.50;;;;;;;;;;5073101;28;20024;-57
2020/12/29 01:12:05;;;;;;;1.75;0.60;;;;;;;;;;5073101;28;20036;-58
2020/12/29 01:14:31;;;;;;;4.45;0.68;;;;;;;;;;5072399;28;20035;-57
2020/12/29 01:16:57;;;;;;;1.98;0.60;;;;;;;;;;5072645;28;20037;-58
2020/12/29 01:19:23;;;;;;;1.63;0.60;;;;;;;;;;5071207;28;20122;-58
2020/12/29 01:21:53;;;;;;;2.72;0.60;;;;;;;;;;5073303;28;20064;-57
2020/12/29 01:24:19;;;;;;;5.20;0.80;;;;;;;;;;5072358;28;20128;-57
2020/12/29 01:26:45;;;;;;;2.45;0.60;;;;;;;;;;5072636;28;20033;-57
2020/12/29 01:29:11;;;;;;;4.28;0.88;;;;;;;;;;5072566;28;20030;-58
2020/12/29 01:31:37;;;;;;;1.88;0.60;;;;;;;;;;5072054;28;20078;-57
2020/12/29 01:34:03;;;;;;;4.53;0.77;;;;;;;;;;5072617;28;20028;-58
2020/12/29 01:36:29;;;;;;;1.95;0.63;;;;;;;;;;5072634;28;20065;-58
2020/12/29 01:38:55;;;;;;;4.05;0.93;;;;;;;;;;5072659;28;20029;-58
2020/12/29 01:41:22;;;;;;;2.60;0.85;;;;;;;;;;5072430;28;20036;-57
2020/12/29 01:43:49;;;;;;;4.45;0.80;;;;;;;;;;5072275;28;20479;-58
2020/12/29 01:46:16;;;;;;;3.22;0.90;;;;;;;;;;5072309;28;20032;-57
2020/12/29 01:48:42;;;;;;;2.83;0.60;;;;;;;;;;5072295;28;20017;-57
2020/12/29 01:51:09;;;;;;;2.20;0.50;;;;;;;;;;5072181;28;20038;-57
2020/12/29 01:53:39;;;;;;;1.95;0.40;;;;;;;;;;5072153;28;20075;-58
2020/12/29 01:56:07;;;;;;;1.60;0.80;;;;;;;;;;5072646;28;20032;-57
2020/12/29 01:58:35;;;;;;;2.45;0.50;;;;;;;;;;5071940;28;20021;-57
2020/12/29 02:01:01;;;;;;;3.53;1.23;;;;;;;;;;5072226;28;20100;-58
2020/12/29 02:03:27;;;;;;;2.90;0.50;;;;;;;;;;5071038;28;20018;-57
2020/12/29 02:05:53;;;;;;;2.22;0.50;;;;;;;;;;5057279;28;20028;-56
2020/12/29 02:08:19;;;;;;;1.98;0.38;;;;;;;;;;5051172;28;20059;-55
2020/12/29 02:10:46;;;;;;;1.67;0.40;;;;;;;;;;5053823;28;20075;-55
2020/12/29 02:13:12;;;;;;;2.17;0.30;;;;;;;;;;5068401;28;20039;-55
2020/12/29 02:15:38;;;;;;;1.20;0.32;;;;;;;;;;5071943;28;20027;-57
2020/12/29 02:18:04;;;;;;;2.70;0.43;;;;;;;;;;5070641;28;20689;-56
2020/12/29 02:20:30;;;;;;;0.70;0.30;;;;;;;;;;5071717;28;20078;-57
2020/12/29 02:22:56;;;;;;;0.88;0.30;;;;;;;;;;5071872;28;20030;-56
2020/12/29 02:25:22;;;;;;;2.15;0.47;;;;;;;;;;5065458;28;20115;-56
2020/12/29 02:27:49;;;;;;;1.85;0.63;;;;;;;;;;5071899;28;20036;-57
2020/12/29 02:30:16;;;;;;;0.73;0.22;;;;;;;;;;5071909;28;20099;-57
2020/12/29 02:32:42;;;;;;;2.05;0.22;;;;;;;;;;5071747;28;20028;-57
2020/12/29 02:35:09;;;;;;;3.88;1.52;;;;;;;;;;5071438;28;20028;-57
2020/12/29 02:37:35;;;;;;;1.77;0.45;;;;;;;;;;5071736;28;20085;-57
2020/12/29 02:40:01;;;;;;;2.60;0.73;;;;;;;;;;5071870;28;20028;-55
2020/12/29 02:42:27;;;;;;;1.98;1.00;;;;;;;;;;5071977;28;20047;-57
2020/12/29 02:44:53;;;;;;;2.13;0.85;;;;;;;;;;5071736;28;20044;-58
2020/12/29 02:47:19;;;;;;;1.00;0.57;;;;;;;;;;5071072;28;20123;-57
2020/12/29 02:49:45;;;;;;;3.42;1.50;;;;;;;;;;5071611;28;20028;-57
2020/12/29 02:52:11;;;;;;;4.10;1.67;;;;;;;;;;5071417;28;20028;-57
2020/12/29 02:54:37;;;;;;;2.85;1.23;;;;;;;;;;5071532;28;20037;-57
2020/12/29 02:57:04;;;;;;;3.13;0.85;;;;;;;;;;5071326;28;20039;-57
2020/12/29 02:59:30;;;;;;;1.30;0.60;;;;;;;;;;5071559;28;20017;-57
2020/12/29 03:01:57;;;;;;;1.60;0.70;;;;;;;;;;5071628;28;20028;-57
2020/12/29 03:04:23;;;;;;;4.32;1.08;;;;;;;;;;5071300;28;20122;-57
2020/12/29 03:06:49;;;;;;;2.88;1.00;;;;;;;;;;5053294;28;20518;-56
2020/12/29 03:09:15;;;;;;;2.80;0.90;;;;;;;;;;5071174;28;20055;-57
2020/12/29 03:11:42;;;;;;;3.00;0.85;;;;;;;;;;5071570;28;20031;-57
2020/12/29 03:14:09;;;;;;;2.13;0.85;;;;;;;;;;5071901;28;20029;-57
2020/12/29 03:16:35;;;;;;;1.60;0.80;;;;;;;;;;5075046;28;20082;-57
2020/12/29 03:19:01;;;;;;;4.97;1.60;;;;;;;;;;5075028;28;20070;-57
2020/12/29 03:21:28;;;;;;;5.60;2.08;;;;;;;;;;5074722;28;20020;-56
2020/12/29 03:23:54;;;;;;;3.78;1.27;;;;;;;;;;5074863;28;20127;-57
2020/12/29 03:26:20;;;;;;;4.65;1.20;;;;;;;;;;5076749;28;20040;-57
2020/12/29 03:28:46;;;;;;;5.68;1.80;;;;;;;;;;5075162;28;20025;-57
2020/12/29 03:31:12;;;;;;;3.78;1.23;;;;;;;;;;5074736;28;20021;-58
2020/12/29 03:33:38;;;;;;;3.25;0.90;;;;;;;;;;5074786;28;20052;-57
2020/12/29 03:36:05;;;;;;;2.53;0.82;;;;;;;;;;5075279;28;20062;-57
2020/12/29 03:38:31;;;;;;;3.55;1.17;;;;;;;;;;5074797;28;20427;-56
2020/12/29 03:40:57;;;;;;;2.80;1.42;;;;;;;;;;5081254;28;20020;-57
2020/12/29 03:43:23;;;;;;;5.07;2.28;;;;;;;;;;5078072;28;20099;-57
2020/12/29 03:45:50;;;;;;;4.32;1.73;;;;;;;;;;5074419;28;20028;-57
2020/12/29 03:48:21;;;;;;;1.23;0.60;;;;;;;;;;5074737;28;20541;-57
2020/12/29 03:50:48;;;;;;;8.05;4.32;;;;;;;;;;5074802;28;20020;-56
2020/12/29 03:53:14;;;;;;;6.88;2.67;;;;;;;;;;5074833;28;20132;-57
2020/12/29 03:55:40;;;;;;;6.13;2.50;;;;;;;;;;5074698;28;20477;-57
2020/12/29 03:58:07;;;;;;;5.78;2.88;;;;;;;;;;5074682;28;20030;-57
2020/12/29 04:00:33;;;;;;;9.38;5.20;;;;;;;;;;5074310;28;20017;-54
2020/12/29 04:02:59;;;;;;;7.22;2.85;;;;;;;;;;5074784;28;20404;-57
2020/12/29 04:05:26;;;;;;;8.15;4.18;;;;;;;;;;5074698;28;20380;-57
2020/12/29 04:07:52;;;;;;;1.50;0.85;;;;;;;;;;5074596;28;20028;-57
2020/12/29 04:10:18;;;;;;;1.48;0.98;;;;;;;;;;5074308;28;20033;-57
2020/12/29 04:12:44;;;;;;;1.20;0.55;;;;;;;;;;5074495;28;20111;-57
2020/12/29 04:15:10;;;;;;;1.05;0.50;;;;;;;;;;5074356;28;20472;-57
2020/12/29 04:17:37;;;;;;;2.13;1.10;;;;;;;;;;5074242;28;20024;-57
2020/12/29 04:20:04;;;;;;;1.75;0.85;;;;;;;;;;5074370;28;20028;-56
2020/12/29 04:22:34;;;;;;;2.13;0.70;;;;;;;;;;5074260;28;20383;-57
2020/12/29 04:25:00;;;;;;;0.60;0.30;;;;;;;;;;5073643;28;20045;-56
2020/12/29 04:27:27;;;;;;;2.45;0.80;;;;;;;;;;5073145;28;20036;-56
2020/12/29 04:29:53;;;;;;;2.03;0.50;;;;;;;;;;5073971;28;20027;-57
2020/12/29 04:32:19;;;;;;;0.80;0.40;;;;;;;;;;5073749;28;20060;-57
2020/12/29 04:34:46;;;;;;;7.32;5.10;;;;;;;;;;5055787;28;20392;-57
2020/12/29 04:37:12;;;;;;;1.08;0.55;;;;;;;;;;5074129;28;20415;-57
2020/12/29 04:39:38;;;;;;;0.60;0.40;;;;;;;;;;5073759;28;20028;-57
2020/12/29 04:42:05;;;;;;;0.17;0.10;;;;;;;;;;5073818;28;20036;-57
2020/12/29 04:44:31;;;;;;;0.57;0.30;;;;;;;;;;5073936;28;20028;-57
2020/12/29 04:46:58;;;;;;;0.90;0.40;;;;;;;;;;5073526;28;20419;-57
2020/12/29 04:49:24;;;;;;;0.70;0.40;;;;;;;;;;5073577;28;20024;-57
2020/12/29 04:51:51;;;;;;;1.05;0.43;;;;;;;;;;5073689;28;20240;-57
2020/12/29 04:54:18;;;;;;;1.20;0.70;;;;;;;;;;5073795;28;20032;-57
2020/12/29 04:56:45;;;;;;;1.27;0.70;;;;;;;;;;5073413;28;20036;-57
2020/12/29 04:59:11;;;;;;;0.80;0.40;;;;;;;;;;5073544;28;20472;-57
2020/12/29 05:01:38;;;;;;;0.28;0.20;;;;;;;;;;5073231;28;20472;-58
2020/12/29 05:04:04;;;;;;;1.42;0.30;;;;;;;;;;5073280;28;20020;-57
2020/12/29 05:06:30;;;;;;;0.28;0.10;;;;;;;;;;5073322;28;20032;-57
2020/12/29 05:08:56;;;;;;;1.15;0.30;;;;;;;;;;5061803;28;20016;-57
2020/12/29 05:11:24;;;;;;;1.08;0.40;;;;;;;;;;5055428;28;20104;-57
2020/12/29 05:13:50;;;;;;;2.03;0.68;;;;;;;;;;5059340;28;20530;-57
2020/12/29 05:16:16;;;;;;;5.63;1.83;;;;;;;;;;5070907;28;20056;-56
2020/12/29 05:18:43;;;;;;;3.72;1.65;;;;;;;;;;5059920;28;20024;-58
2020/12/29 05:21:09;;;;;;;5.00;2.30;;;;;;;;;;5076670;28;20035;-58
2020/12/29 05:23:36;;;;;;;2.25;1.42;;;;;;;;;;5072477;28;20024;-56
2020/12/29 05:26:03;;;;;;;4.10;2.40;;;;;;;;;;5072472;28;20115;-56
2020/12/29 05:28:29;;;;;;;3.75;2.38;;;;;;;;;;5068425;28;20107;-57
2020/12/29 05:30:56;;;;;;;5.07;3.85;;;;;;;;;;5054259;28;20017;-57
2020/12/29 05:33:22;;;;;;;2.80;1.60;;;;;;;;;;5058386;28;20025;-58
2020/12/29 05:35:50;;;;;;;1.45;0.80;;;;;;;;;;5072642;28;20283;-57
2020/12/29 05:38:17;;;;;;;0.90;0.55;;;;;;;;;;5072748;28;20052;-57
2020/12/29 05:40:44;;;;;;;1.70;0.80;;;;;;;;;;5072482;28;20025;-57
2020/12/29 05:43:10;;;;;;;2.65;1.00;;;;;;;;;;5058519;28;20060;-58
2020/12/29 05:45:36;;;;;;;4.43;2.50;;;;;;;;;;5054744;28;20032;-57
2020/12/29 05:48:03;;;;;;;8.27;4.93;;;;;;;;;;5072185;28;20041;-57
2020/12/29 05:50:30;;;;;;;6.50;3.75;;;;;;;;;;5072546;28;20024;-57
2020/12/29 05:53:04;;;;;;;10.55;6.95;;;;;;;;;;5072356;28;20024;-58
2020/12/29 05:55:32;;;;;;;3.70;1.90;;;;;;;;;;5072367;28;20046;-57
2020/12/29 05:58:08;;;;;;;11.50;5.07;;;;;;;;;;5071059;28;20031;-57
2020/12/29 06:00:35;;;;;;;4.30;2.50;;;;;;;;;;5070918;28;20455;-57
2020/12/29 06:03:02;;;;;;;7.78;4.20;;;;;;;;;;5071657;28;20029;-57
2020/12/29 06:05:29;;;;;;;8.00;4.38;;;;;;;;;;5071342;28;20069;-57
2020/12/29 06:07:56;;;;;;;9.23;5.43;;;;;;;;;;5071886;28;20028;-57
2020/12/29 06:10:24;;;;;;;8.77;5.63;;;;;;;;;;5071802;28;20056;-57
2020/12/29 06:12:54;;;;;;;6.55;3.80;;;;;;;;;;5071955;28;20469;-57
2020/12/29 06:15:23;;;;;;;3.58;2.35;;;;;;;;;;5074420;28;20028;-57
2020/12/29 06:17:54;;;;;;;4.88;2.72;;;;;;;;;;5058313;28;20052;-57
2020/12/29 06:20:20;;;;;;;6.90;4.20;;;;;;;;;;5072038;28;20024;-57
2020/12/29 06:22:47;;;;;;;15.80;9.52;;;;;;;;;;5070151;28;20066;-57
2020/12/29 06:25:16;;;;;;;12.82;7.05;;;;;;;;;;5071364;28;20041;-57
2020/12/29 06:27:48;;;;;;;10.48;5.75;;;;;;;;;;5071611;28;20423;-57
2020/12/29 06:30:14;;;;;;;6.43;4.18;;;;;;;;;;5067851;28;20024;-57
2020/12/29 06:32:43;;;;;;;5.50;3.97;;;;;;;;;;5071270;28;20090;-57
2020/12/29 06:35:09;;;;;;;7.03;3.33;;;;;;;;;;5071773;28;20021;-60
2020/12/29 06:37:47;;;;;;;4.05;2.75;;;;;;;;;;5071660;28;20093;-61
2020/12/29 06:40:13;;;;;;;3.65;2.40;;;;;;;;;;5059167;28;20060;-60
2020/12/29 06:42:41;;;;;;;2.22;1.45;;;;;;;;;;5071693;28;20029;-62
2020/12/29 06:45:08;;;;;;;3.67;2.30;;;;;;;;;;5071759;28;20392;-61
2020/12/29 06:47:36;;;;;;;8.93;4.55;;;;;;;;;;5071588;28;20036;-60
2020/12/29 06:50:03;;;;;;;17.77;9.63;;;;;;;;;;5073748;28;20081;-62
2020/12/29 06:52:30;;;;;;;10.55;5.10;;;;;;;;;;5075657;28;20123;-61
2020/12/29 06:54:57;;;;;;;24.48;14.98;;;;;;;;;;5075286;28;20103;-60
2020/12/29 06:57:43;;;;;;;18.58;11.43;;;;;;;;;;5075730;28;20025;-60
2020/12/29 07:00:12;;;;;;;23.33;15.05;;;;;;;;;;5075011;28;20484;-60
2020/12/29 07:02:39;;;;;;;18.20;10.45;;;;;;;;;;5075477;28;20560;-62
2020/12/29 07:05:31;;;;;;;10.65;5.70;;;;;;;;;;5075468;28;20017;-61
2020/12/29 07:08:01;;;;;;;9.73;5.20;;;;;;;;;;5071943;28;20480;-61
2020/12/29 07:10:37;;;;;;;6.97;3.45;;;;;;;;;;5075409;28;20052;-60
2020/12/29 07:13:04;;;;;;;5.63;2.35;;;;;;;;;;5075329;28;20059;-61
2020/12/29 07:15:32;;;;;;;2.28;1.30;;;;;;;;;;5075774;28;20418;-60
2020/12/29 07:17:59;;;;;;;2.05;1.20;;;;;;;;;;5061133;28;20009;-62
2020/12/29 07:20:26;;;;;;;3.00;1.50;;;;;;;;;;5075107;28;20025;-60
2020/12/29 07:22:56;;;;;;;2.00;1.10;;;;;;;;;;5074917;28;20028;-60
2020/12/29 07:25:23;;;;;;;5.35;2.50;;;;;;;;;;5075080;28;20119;-60
2020/12/29 07:27:50;;;;;;;2.95;1.60;;;;;;;;;;5074896;28;20044;-60
2020/12/29 07:30:17;;;;;;;3.53;1.85;;;;;;;;;;5075086;28;20445;-61
2020/12/29 07:32:43;;;;;;;4.10;1.77;;;;;;;;;;5074811;28;20038;-60
2020/12/29 07:35:09;;;;;;;4.47;1.90;;;;;;;;;;5075050;28;20396;-61
2020/12/29 07:37:35;;;;;;;2.03;1.17;;;;;;;;;;5074871;28;20021;-61
2020/12/29 07:40:01;;;;;;;3.05;1.67;;;;;;;;;;5074892;28;20353;-61
2020/12/29 07:42:27;;;;;;;2.60;1.52;;;;;;;;;;5074791;28;20020;-61
2020/12/29 07:44:53;;;;;;;1.40;1.10;;;;;;;;;;5074725;28;20070;-57
2020/12/29 07:47:19;;;;;;;1.45;0.70;;;;;;;;;;5074614;28;20097;-62
2020/12/29 07:49:45;;;;;;;1.40;0.82;;;;;;;;;;5074339;28;20040;-61
2020/12/29 07:52:21;;;;;;;1.52;1.00;;;;;;;;;;5074621;28;20039;-60
2020/12/29 07:54:47;;;;;;;1.50;1.15;;;;;;;;;;5074307;28;20081;-61
2020/12/29 07:57:13;;;;;;;1.20;0.70;;;;;;;;;;5074734;28;20484;-60
2020/12/29 07:59:39;;;;;;;2.83;1.23;;;;;;;;;;5073449;28;20423;-60
2020/12/29 08:02:08;;;;;;;0.70;0.40;;;;;;;;;;5072881;28;20021;-61
2020/12/29 08:04:34;;;;;;;2.08;1.45;;;;;;;;;;5074007;28;20017;-60
2020/12/29 08:07:07;;;;;;;2.17;0.80;;;;;;;;;;5073528;28;20028;-60
2020/12/29 08:09:49;;;;;;;0.82;0.63;;;;;;;;;;5073955;28;20047;-61
2020/12/29 08:12:15;;;;;;;2.25;1.58;;;;;;;;;;5073952;28;20023;-60
2020/12/29 08:14:42;;;;;;;2.00;1.70;;;;;;;;;;5074188;28;20020;-61
2020/12/29 08:17:08;;;;;;;2.97;2.08;;;;;;;;;;5073716;28;20066;-61
2020/12/29 08:19:34;;;;;;;4.18;2.67;;;;;;;;;;5074015;28;20027;-60
2020/12/29 08:22:04;;;;;;;4.55;2.30;;;;;;;;;;5073998;28;20028;-62
2020/12/29 08:24:31;;;;;;;3.83;2.08;;;;;;;;;;5073507;28;20051;-61
2020/12/29 08:26:57;;;;;;;10.07;5.60;;;;;;;;;;5073799;28;20082;-61
2020/12/29 08:29:24;;;;;;;4.07;2.40;;;;;;;;;;5073891;28;20021;-62
2020/12/29 08:32:04;;;;;;;3.17;1.88;;;;;;;;;;5073811;28;20484;-61
2020/12/29 08:34:30;;;;;;;1.77;1.25;;;;;;;;;;5073655;28;20036;-61
2020/12/29 08:37:01;;;;;;;7.70;5.15;;;;;;;;;;5073816;28;20020;-61
2020/12/29 08:39:32;;;;;;;7.53;4.95;;;;;;;;;;5073660;28;20021;-62
2020/12/29 08:42:02;;;;;;;33.72;15.43;;;;;;;;;;5073531;28;20036;-58
2020/12/29 08:44:29;;;;;;;18.42;9.88;;;;;;;;;;5073577;28;20031;-66
2020/12/29 08:46:55;;;;;;;6.93;4.47;;;;;;;;;;5073051;28;20040;-59
2020/12/29 08:49:30;;;;;;;35.15;18.08;;;;;;;;;;5073411;28;20028;-61
2020/12/29 08:51:56;;;;;;;10.95;7.03;;;;;;;;;;5073212;28;20021;-64
2020/12/29 08:54:23;;;;;;;5.15;3.33;;;;;;;;;;5072972;28;20498;-60
2020/12/29 08:56:49;;;;;;;6.72;4.10;;;;;;;;;;5073156;28;20111;-70
2020/12/29 08:59:20;;;;;;;9.68;5.75;;;;;;;;;;5073241;28;20016;-59
2020/12/29 09:02:05;;;;;;;2.47;1.50;;;;;;;;;;5073278;28;20048;-65
2020/12/29 09:04:34;;;;;;;4.60;2.13;;;;;;;;;;5073180;28;20550;-59
2020/12/29 09:07:07;;;;;;;2.83;1.50;;;;;;;;;;5072703;28;20075;-59
2020/12/29 09:09:34;;;;;;;4.13;2.83;;;;;;;;;;5073000;28;20104;-61
2020/12/29 09:12:06;;;;;;;6.25;3.28;;;;;;;;;;5072337;28;20028;-59
2020/12/29 09:14:32;;;;;;;5.68;2.78;;;;;;;;;;5073005;28;20067;-63
2020/12/29 09:17:01;;;;;;;2.40;1.80;;;;;;;;;;5072817;28;20124;-62
2020/12/29 09:19:27;;;;;;;4.55;2.10;;;;;;;;;;5072655;28;20052;-64
2020/12/29 09:22:10;;;;;;;2.70;1.60;;;;;;;;;;5072483;28;20028;-63
2020/12/29 09:24:37;;;;;;;4.60;2.20;;;;;;;;;;5072116;28;20051;-58
2020/12/29 09:27:03;;;;;;;5.35;3.30;;;;;;;;;;5072648;28;20116;-70
2020/12/29 09:29:33;;;;;;;3.75;2.20;;;;;;;;;;5057485;28;20411;-64
2020/12/29 09:31:59;;;;;;;5.72;2.97;;;;;;;;;;5051746;28;20024;-59
2020/12/29 09:34:25;;;;;;;6.15;2.78;;;;;;;;;;5053698;28;20119;-60
2020/12/29 09:36:51;;;;;;;2.20;1.10;;;;;;;;;;5060134;28;20021;-64
2020/12/29 09:39:17;;;;;;;5.22;3.22;;;;;;;;;;5072244;28;20020;-63
2020/12/29 09:41:43;;;;;;;1.77;1.10;;;;;;;;;;5071593;28;20099;-59
2020/12/29 09:44:09;;;;;;;2.00;1.10;;;;;;;;;;5072187;28;20036;-59
2020/12/29 09:46:38;;;;;;;3.22;2.20;;;;;;;;;;5071431;28;20472;-58
2020/12/29 09:49:05;;;;;;;3.67;2.42;;;;;;;;;;5071880;28;20392;-58
2020/12/29 09:51:31;;;;;;;4.38;2.33;;;;;;;;;;5069599;28;20027;-59
2020/12/29 09:53:57;;;;;;;3.05;1.75;;;;;;;;;;5072013;28;20430;-62
2020/12/29 09:56:23;;;;;;;3.47;2.03;;;;;;;;;;5072128;28;20108;-59
2020/12/29 09:58:49;;;;;;;4.55;3.22;;;;;;;;;;5072092;28;20350;-59
2020/12/29 10:01:16;;;;;;;2.58;1.55;;;;;;;;;;5072023;28;20647;-59
2020/12/29 10:03:42;;;;;;;5.95;3.60;;;;;;;;;;5071882;28;20021;-63
2020/12/29 10:06:08;;;;;;;4.57;2.95;;;;;;;;;;5070862;28;20384;-60
2020/12/29 10:08:34;;;;;;;4.97;2.50;;;;;;;;;;5071377;28;20032;-60
2020/12/29 10:11:00;;;;;;;2.70;1.70;;;;;;;;;;5071594;28;20020;-60
2020/12/29 10:13:26;;;;;;;7.20;3.50;;;;;;;;;;5069225;28;20112;-59
2020/12/29 10:15:52;;;;;;;6.05;3.65;;;;;;;;;;5055471;28;20087;-60
2020/12/29 10:18:18;;;;;;;9.05;5.90;;;;;;;;;;5054379;28;21459;-62
2020/12/29 10:20:44;;;;;;;7.80;4.13;;;;;;;;;;5052943;28;20021;-69
2020/12/29 10:23:11;;;;;;;6.82;5.38;;;;;;;;;;5052672;28;20037;-59
2020/12/29 10:25:37;;;;;;;6.13;3.20;;;;;;;;;;5056036;28;20048;-64
2020/12/29 10:28:03;;;;;;;4.10;3.10;;;;;;;;;;5070131;28;20166;-59
2020/12/29 10:30:29;;;;;;;2.25;1.52;;;;;;;;;;5071269;28;20099;-68
2020/12/29 10:32:55;;;;;;;3.03;1.70;;;;;;;;;;5062169;28;20025;-62
2020/12/29 10:35:21;;;;;;;2.20;1.27;;;;;;;;;;5055250;28;20365;-60
2020/12/29 10:37:47;;;;;;;2.72;1.88;;;;;;;;;;5071951;28;20357;-66
2020/12/29 10:40:13;;;;;;;1.42;0.90;;;;;;;;;;5057015;28;20465;-59
2020/12/29 10:42:39;;;;;;;4.65;1.90;;;;;;;;;;5052227;28;20032;-61
2020/12/29 10:45:05;;;;;;;2.65;1.48;;;;;;;;;;5058928;28;20017;-61
2020/12/29 10:47:31;;;;;;;9.52;5.70;;;;;;;;;;5071518;28;20029;-71
2020/12/29 10:49:58;;;;;;;4.88;2.08;;;;;;;;;;5071717;28;20048;-70
2020/12/29 10:52:24;;;;;;;3.17;2.00;;;;;;;;;;5071736;28;20354;-69
2020/12/29 10:54:50;;;;;;;3.72;2.60;;;;;;;;;;5071146;28;20122;-68
2020/12/29 10:57:16;;;;;;;4.07;2.53;;;;;;;;;;5058497;28;20033;-61
2020/12/29 10:59:42;;;;;;;3.38;2.13;;;;;;;;;;5052637;28;20035;-68
2020/12/29 11:02:09;;;;;;;5.15;2.40;;;;;;;;;;5051591;28;20101;-63
2020/12/29 11:04:35;;;;;;;10.02;6.32;;;;;;;;;;5054379;28;20496;-60
2020/12/29 11:07:01;;;;;;;4.53;2.50;;;;;;;;;;5062157;28;20029;-61
2020/12/29 11:09:27;;;;;;;4.18;2.40;;;;;;;;;;5071487;28;20028;-61
2020/12/29 11:11:53;;;;;;;4.82;2.80;;;;;;;;;;5060171;28;20020;-61
2020/12/29 11:14:19;;;;;;;4.32;2.80;;;;;;;;;;5071471;28;20028;-62
2020/12/29 11:16:49;;;;;;;6.60;3.83;;;;;;;;;;5071441;28;20020;-62
2020/12/29 11:19:15;;;;;;;4.30;2.85;;;;;;;;;;5071510;28;20031;-62
2020/12/29 11:21:41;;;;;;;1.80;1.38;;;;;;;;;;5071268;28;20021;-61
2020/12/29 11:24:07;;;;;;;4.43;2.38;;;;;;;;;;5071397;28;20045;-63
2020/12/29 11:26:33;;;;;;;3.58;2.17;;;;;;;;;;5071308;28;20044;-61
2020/12/29 11:28:59;;;;;;;4.15;1.90;;;;;;;;;;5071767;28;20028;-61
2020/12/29 11:31:25;;;;;;;3.25;1.90;;;;;;;;;;5071384;28;20121;-68
2020/12/29 11:33:51;;;;;;;6.00;3.10;;;;;;;;;;5071422;28;20025;-69
2020/12/29 11:36:18;;;;;;;4.65;3.10;;;;;;;;;;5073702;28;20468;-61
2020/12/29 11:38:44;;;;;;;2.20;1.20;;;;;;;;;;5074805;28;20052;-61
2020/12/29 11:41:11;;;;;;;2.58;1.60;;;;;;;;;;5074965;28;20029;-68
2020/12/29 11:43:37;;;;;;;4.18;1.65;;;;;;;;;;5074844;28;20045;-70
2020/12/29 11:46:04;;;;;;;5.82;2.70;;;;;;;;;;5074744;28;20099;-61
2020/12/29 11:48:30;;;;;;;4.55;2.55;;;;;;;;;;5074566;28;20032;-69
2020/12/29 11:50:56;;;;;;;2.70;1.67;;;;;;;;;;5074467;28;20021;-67
2020/12/29 11:53:22;;;;;;;3.38;2.20;;;;;;;;;;5074003;28;20020;-60
2020/12/29 11:55:48;;;;;;;2.75;1.52;;;;;;;;;;5056824;28;20029;-61
2020/12/29 11:58:15;;;;;;;2.67;1.40;;;;;;;;;;5054544;28;20056;-60
2020/12/29 12:00:41;;;;;;;9.85;3.88;;;;;;;;;;5057902;28;20056;-61
2020/12/29 12:03:08;;;;;;;7.38;3.47;;;;;;;;;;5074242;28;20032;-63
2020/12/29 12:05:34;;;;;;;9.07;4.80;;;;;;;;;;5073473;28;20085;-61
2020/12/29 12:08:00;;;;;;;7.03;3.45;;;;;;;;;;5074033;28;20116;-61
2020/12/29 12:10:26;;;;;;;6.40;3.00;;;;;;;;;;5074319;28;20413;-59
2020/12/29 12:12:52;;;;;;;7.32;3.42;;;;;;;;;;5074103;28;20021;-61
2020/12/29 12:15:18;;;;;;;11.90;6.00;;;;;;;;;;5074293;28;20381;-61
2020/12/29 12:17:44;;;;;;;13.35;6.68;;;;;;;;;;5074170;28;20388;-60
2020/12/29 12:20:10;;;;;;;16.08;7.82;;;;;;;;;;5073983;28;20570;-61
2020/12/29 12:22:36;;;;;;;10.07;5.18;;;;;;;;;;5074135;28;20365;-61
2020/12/29 12:25:03;;;;;;;7.78;4.25;;;;;;;;;;5073629;28;20504;-60
2020/12/29 12:27:29;;;;;;;3.63;2.40;;;;;;;;;;5074216;28;20122;-68
2020/12/29 12:29:55;;;;;;;9.82;5.07;;;;;;;;;;5074234;28;20059;-60
2020/12/29 12:32:21;;;;;;;13.82;6.53;;;;;;;;;;5074122;28;20050;-61
2020/12/29 12:34:47;;;;;;;11.65;6.35;;;;;;;;;;5073972;28;20025;-60
2020/12/29 12:37:13;;;;;;;9.35;4.80;;;;;;;;;;5069294;28;20098;-60
2020/12/29 12:39:40;;;;;;;13.13;6.15;;;;;;;;;;5055158;28;20024;-60
2020/12/29 12:42:08;;;;;;;23.48;11.15;;;;;;;;;;5056024;28;20023;-60
2020/12/29 12:44:34;;;;;;;12.00;6.30;;;;;;;;;;5054389;28;20021;-62
2020/12/29 12:47:00;;;;;;;15.15;6.90;;;;;;;;;;5066245;28;20036;-58
2020/12/29 12:49:26;;;;;;;15.05;7.18;;;;;;;;;;5055791;28;20029;-58
2020/12/29 12:51:52;;;;;;;12.93;7.28;;;;;;;;;;5056310;28;20100;-58
2020/12/29 12:54:18;;;;;;;22.02;12.35;;;;;;;;;;5056104;28;20029;-59
2020/12/29 12:56:44;;;;;;;12.13;6.88;;;;;;;;;;5059136;28;20381;-60
2020/12/29 12:59:13;;;;;;;8.55;4.53;;;;;;;;;;5060081;28;20021;-64
2020/12/29 13:01:40;;;;;;;23.73;15.52;;;;;;;;;;5072117;28;20388;-65
2020/12/29 13:04:06;;;;;;;20.00;10.25;;;;;;;;;;5073378;28;20099;-60
2020/12/29 13:06:32;;;;;;;35.17;8.75;;;;;;;;;;5073129;28;20058;-63
2020/12/29 13:08:58;;;;;;;18.17;10.90;;;;;;;;;;5073214;28;20151;-60
2020/12/29 13:11:24;;;;;;;24.15;12.07;;;;;;;;;;5073127;28;20483;-61
2020/12/29 13:13:50;;;;;;;16.85;8.63;;;;;;;;;;5073294;28;20111;-66
2020/12/29 13:16:20;;;;;;;12.38;8.23;;;;;;;;;;5069437;28;20483;-57
2020/12/29 13:18:46;;;;;;;15.85;9.27;;;;;;;;;;5054887;28;20139;-66
2020/12/29 13:21:13;;;;;;;10.05;6.05;;;;;;;;;;5055851;28;20025;-63
2020/12/29 13:23:39;;;;;;;5.63;3.25;;;;;;;;;;5054017;28;20025;-60
2020/12/29 13:26:06;;;;;;;5.15;2.90;;;;;;;;;;5061914;28;20385;-65
2020/12/29 13:28:32;;;;;;;14.15;6.35;;;;;;;;;;5049874;28;20091;-63
2020/12/29 13:30:58;;;;;;;7.82;4.53;;;;;;;;;;5052994;28;20096;-62
2020/12/29 13:33:25;;;;;;;8.57;5.05;;;;;;;;;;5053035;28;20029;-64
2020/12/29 13:35:51;;;;;;;12.18;6.50;;;;;;;;;;5061452;28;20017;-64
2020/12/29 13:38:17;;;;;;;12.55;6.32;;;;;;;;;;5071778;28;20021;-64
2020/12/29 13:40:43;;;;;;;13.73;7.15;;;;;;;;;;5059047;28;20041;-63
2020/12/29 13:43:09;;;;;;;14.60;7.45;;;;;;;;;;5053216;28;20041;-65
2020/12/29 13:45:35;;;;;;;16.70;8.18;;;;;;;;;;5061330;28;20025;-63
2020/12/29 13:48:01;;;;;;;10.00;5.55;;;;;;;;;;5052532;28;20049;-61
2020/12/29 13:50:27;;;;;;;17.35;7.60;;;;;;;;;;5054362;28;20013;-63
2020/12/29 13:52:54;;;;;;;9.57;5.43;;;;;;;;;;5062758;28;20419;-62
2020/12/29 13:55:20;;;;;;;7.72;4.38;;;;;;;;;;5071806;28;20032;-65
2020/12/29 13:57:46;;;;;;;10.70;6.10;;;;;;;;;;5071956;28;20029;-65
2020/12/29 14:00:12;;;;;;;10.77;5.78;;;;;;;;;;5059766;28;20096;-63
2020/12/29 14:02:38;;;;;;;8.98;5.25;;;;;;;;;;5071727;28;20035;-61
2020/12/29 14:05:04;;;;;;;6.47;4.03;;;;;;;;;;5072354;28;20404;-61
2020/12/29 14:07:30;;;;;;;6.90;3.95;;;;;;;;;;5070914;28;20043;-61
2020/12/29 14:09:56;;;;;;;15.73;7.97;;;;;;;;;;5072192;28;20025;-60
2020/12/29 14:12:22;;;;;;;5.00;3.40;;;;;;;;;;5057816;28;20026;-60
2020/12/29 14:14:49;;;;;;;6.97;4.15;;;;;;;;;;5058891;28;20111;-58
2020/12/29 14:17:15;;;;;;;6.70;4.10;;;;;;;;;;5061244;28;20444;-62
2020/12/29 14:19:41;;;;;;;7.60;4.43;;;;;;;;;;5062347;28;20023;-66
2020/12/29 14:22:07;;;;;;;9.68;5.32;;;;;;;;;;5066394;28;20021;-66
2020/12/29 14:24:33;;;;;;;38.03;23.08;;;;;;;;;;5052171;28;20037;-65
2020/12/29 14:26:59;;;;;;;66.70;34.05;;;;;;;;;;5055772;28;20052;-65
2020/12/29 14:29:25;;;;;;;76.15;44.00;;;;;;;;;;5052927;28;20029;-65
2020/12/29 14:31:52;;;;;;;73.35;44.90;;;;;;;;;;5055636;28;20017;-65
2020/12/29 14:34:18;;;;;;;18.20;12.60;;;;;;;;;;5058177;28;20059;-62
2020/12/29 14:36:45;;;;;;;9.90;7.07;;;;;;;;;;5057072;28;20112;-58
2020/12/29 14:39:11;;;;;;;3.88;2.80;;;;;;;;;;5040380;28;20045;-63